Time;durP1;ratioP1;P1;durP2;ratioP2;P2;SDS_P1;SDS_P2;PMS_P1;PMS_P2;Temp;Humidity;BMP_temperature;BMP_pressure;BME280_temperature;BME280_humidity;BME280_pressure;Samples;Min_cycle;Max_cycle;Signal;HPM_P1;HPM_P2
2023/02/13 00:00:12;;;;;;;17.17;11.07;;;;;;;5.37;58.11;100748.53;7058753;28;20265;-79
2023/02/13 00:03:34;;;;;;;15.87;10.70;;;;;;;5.34;58.09;100746.09;7059199;28;20692;-79
2023/02/13 00:06:55;;;;;;;18.63;11.03;;;;;;;5.50;57.61;100744.75;7058988;28;20232;-79
2023/02/13 00:10:17;;;;;;;16.57;10.17;;;;;;;5.59;57.17;100729.72;7059280;28;20206;-79
2023/02/13 00:13:39;;;;;;;76.10;28.83;;;;;;;5.27;57.39;100739.56;7059138;28;20283;-79
2023/02/13 00:17:02;;;;;;;64.27;25.57;;;;;;;5.15;57.87;100749.44;7058828;28;20315;-79
2023/02/13 00:20:23;;;;;;;24.83;12.73;;;;;;;5.20;57.69;100755.22;7058330;28;20233;-79
2023/02/13 00:23:45;;;;;;;31.33;14.37;;;;;;;5.24;57.61;100751.34;7058992;28;20255;-79
2023/02/13 00:27:06;;;;;;;31.83;15.63;;;;;;;5.17;57.52;100749.28;7058301;28;20244;-79
2023/02/13 00:30:28;;;;;;;24.27;13.73;;;;;;;5.10;57.16;100727.56;7058602;28;20249;-79
2023/02/13 00:33:50;;;;;;;19.97;11.77;;;;;;;4.82;57.48;100746.78;7058721;28;20298;-78
2023/02/13 00:37:12;;;;;;;32.83;13.87;;;;;;;5.16;57.84;100743.09;7058605;28;20231;-79
2023/02/13 00:40:34;;;;;;;19.40;12.63;;;;;;;4.82;58.44;100752.13;7058553;28;20225;-79
2023/02/13 00:43:55;;;;;;;23.77;12.10;;;;;;;4.64;57.95;100678.75;7059566;28;20321;-78
2023/02/13 00:47:16;;;;;;;22.97;13.47;;;;;;;5.07;58.07;100751.84;7059217;28;20229;-79
2023/02/13 00:50:39;;;;;;;23.37;14.67;;;;;;;5.02;58.07;100740.66;7059429;28;20285;-78
2023/02/13 00:54:01;;;;;;;22.30;13.67;;;;;;;5.36;57.48;100736.97;7061322;28;20232;-79
2023/02/13 00:57:22;;;;;;;19.73;11.93;;;;;;;5.38;57.28;100743.06;7060754;27;20316;-78
2023/02/13 01:00:46;;;;;;;19.63;12.17;;;;;;;5.20;57.35;100733.84;7083097;28;20274;-79
2023/02/13 01:04:07;;;;;;;19.10;11.70;;;;;;;5.21;57.09;100738.25;7063366;28;20207;-79
2023/02/13 01:07:30;;;;;;;20.47;12.50;;;;;;;4.93;57.33;100740.56;7062495;27;20359;-79
2023/02/13 01:10:51;;;;;;;20.57;12.03;;;;;;;5.02;57.24;100743.34;7063095;28;20240;-79
2023/02/13 01:14:13;;;;;;;27.67;12.70;;;;;;;5.03;57.39;100699.63;7063342;27;20351;-79
2023/02/13 01:17:34;;;;;;;21.57;12.93;;;;;;;5.14;57.14;100712.13;7062343;28;20572;-79
2023/02/13 01:20:57;;;;;;;19.07;11.83;;;;;;;5.21;56.33;100726.69;7062173;27;20222;-79
2023/02/13 01:24:20;;;;;;;32.30;12.43;;;;;;;5.06;57.05;100719.88;7062743;28;20846;-79
2023/02/13 01:27:42;;;;;;;21.83;12.57;;;;;;;5.01;57.37;100735.47;7061799;27;20274;-79
2023/02/13 01:31:03;;;;;;;19.87;12.87;;;;;;;4.78;57.47;100731.09;7062998;28;20295;-79
2023/02/13 01:34:25;;;;;;;22.07;13.37;;;;;;;4.54;58.28;100727.72;7062558;28;20232;-79
2023/02/13 01:37:46;;;;;;;19.30;11.97;;;;;;;4.70;58.48;100725.50;7062077;27;20819;-80
2023/02/13 01:41:10;;;;;;;21.87;12.83;;;;;;;4.44;58.63;100713.38;7062862;28;20222;-79
2023/02/13 01:44:52;;;;;;;20.53;11.30;;;;;;;4.76;56.93;100736.56;7065648;28;20206;-81
2023/02/13 01:48:16;;;;;;;19.33;12.07;;;;;;;4.87;57.25;100739.25;7072782;28;20225;-79
2023/02/13 01:51:39;;;;;;;22.53;13.40;;;;;;;4.60;57.73;100728.06;7062966;28;20204;-79
2023/02/13 01:55:00;;;;;;;20.27;11.93;;;;;;;5.01;56.97;100724.78;7063015;28;20218;-79
2023/02/13 01:58:26;;;;;;;20.57;12.47;;;;;;;4.92;56.73;100715.69;7062646;28;20284;-79
2023/02/13 02:01:48;;;;;;;18.43;12.17;;;;;;;5.06;55.81;100731.44;7063299;27;20250;-79
2023/02/13 02:05:14;;;;;;;19.73;12.50;;;;;;;4.89;56.51;100712.41;7062651;28;20266;-79
2023/02/13 02:08:35;;;;;;;20.27;11.77;;;;;;;4.82;56.37;100708.50;7062596;28;20234;-79
2023/02/13 02:12:01;;;;;;;20.33;13.13;;;;;;;4.81;56.33;100721.03;7061596;28;20226;-79
2023/02/13 02:15:24;;;;;;;23.03;12.57;;;;;;;4.76;57.02;100715.19;7061711;28;20634;-79
2023/02/13 02:18:46;;;;;;;22.57;13.27;;;;;;;4.83;57.15;100720.91;7061548;28;20756;-79
2023/02/13 02:22:59;;;;;;;21.83;12.90;;;;;;;4.56;57.37;100721.28;7060502;28;20230;-79
2023/02/13 02:26:41;;;;;;;18.13;11.10;;;;;;;4.56;56.87;100721.28;7061023;28;20644;-79
2023/02/13 02:30:31;;;;;;;23.50;13.30;;;;;;;4.35;57.27;100717.59;7061815;28;20314;-79
2023/02/13 02:34:05;;;;;;;25.20;14.03;;;;;;;4.38;57.55;100704.03;7073912;28;20260;-79
2023/02/13 02:37:36;;;;;;;18.47;11.60;;;;;;;4.37;57.60;100706.81;7081672;28;20225;-79
2023/02/13 02:41:02;;;;;;;23.67;12.17;;;;;;;4.52;57.41;100700.25;7069807;28;20356;-80
2023/02/13 02:44:39;;;;;;;23.07;12.50;;;;;;;4.21;57.45;100696.47;7060231;28;20695;-79
2023/02/13 02:51:55;;;;;;;20.80;12.83;;;;;;;4.45;57.13;100715.94;7060151;28;20631;-79
2023/02/13 02:55:25;;;;;;;21.57;12.07;;;;;;;3.98;57.41;100725.91;7059768;27;20189;-79
2023/02/13 03:06:13;;;;;;;23.90;12.73;;;;;;;4.40;56.73;100719.91;7059096;28;20181;-79
2023/02/13 03:13:38;;;;;;;22.47;13.53;;;;;;;4.45;57.00;100715.94;7059150;28;20177;-79
2023/02/13 03:24:25;;;;;;;22.77;13.13;;;;;;;4.23;56.69;100715.03;7057807;28;20206;-79
2023/02/13 03:31:36;;;;;;;20.60;12.67;;;;;;;3.99;56.83;100693.75;7086367;27;20193;-79
2023/02/13 03:38:58;;;;;;;27.50;13.03;;;;;;;4.01;56.73;100707.81;7085798;27;20220;-80
2023/02/13 03:42:23;;;;;;;21.03;12.50;;;;;;;4.44;56.48;100738.25;7086290;27;20280;-79
2023/02/13 03:45:56;;;;;;;23.10;14.40;;;;;;;4.41;55.85;100732.28;7086358;27;20212;-79
2023/02/13 03:53:02;;;;;;;25.23;13.07;;;;;;;3.23;57.00;100705.81;7087132;27;20177;-79
2023/02/13 04:00:08;;;;;;;28.40;15.60;;;;;;;3.60;58.92;100746.63;7098757;27;20202;-79
2023/02/13 04:03:35;;;;;;;28.23;15.47;;;;;;;3.81;58.66;100767.19;7086897;27;20234;-79
2023/02/13 04:07:00;;;;;;;27.00;13.80;;;;;;;3.52;58.41;100755.19;7086124;27;20237;-79
2023/02/13 04:10:22;;;;;;;30.13;15.67;;;;;;;3.99;58.12;100759.63;7086241;27;20205;-79
2023/02/13 04:13:47;;;;;;;31.00;16.33;;;;;;;3.94;57.86;100732.41;7086195;27;20349;-79
2023/02/13 04:17:14;;;;;;;25.40;14.77;;;;;;;3.90;58.21;100782.50;7085112;27;20307;-79
2023/02/13 04:20:38;;;;;;;25.50;14.60;;;;;;;3.85;57.51;100749.16;7084709;27;20187;-79
2023/02/13 04:23:59;;;;;;;25.20;13.67;;;;;;;3.99;57.12;100743.59;7085951;27;20188;-79
2023/02/13 04:27:21;;;;;;;30.50;14.93;;;;;;;4.04;56.81;100770.78;7085851;27;20222;-79
2023/02/13 04:30:42;;;;;;;25.77;13.93;;;;;;;3.97;56.84;100769.56;7085378;27;20703;-79
2023/02/13 04:34:04;;;;;;;25.73;13.63;;;;;;;3.51;56.72;100753.47;7086034;27;20268;-79
2023/02/13 04:37:26;;;;;;;25.93;14.53;;;;;;;3.56;57.15;100769.13;7085268;27;20225;-79
2023/02/13 04:40:48;;;;;;;27.77;15.00;;;;;;;3.76;57.26;100758.69;7085047;27;20208;-80
2023/02/13 04:44:09;;;;;;;28.67;16.47;;;;;;;3.57;57.09;100755.69;7085209;27;20257;-79
2023/02/13 04:47:31;;;;;;;30.60;16.23;;;;;;;3.45;57.63;100774.41;7085478;27;20243;-79
2023/02/13 04:50:52;;;;;;;26.90;14.87;;;;;;;3.38;58.28;100781.16;7085858;27;20682;-79
2023/02/13 04:54:15;;;;;;;28.50;14.80;;;;;;;3.45;58.43;100775.28;7086012;27;20417;-80
2023/02/13 04:57:37;;;;;;;28.80;15.13;;;;;;;3.48;58.40;100771.53;7085411;27;20583;-80
2023/02/13 05:00:58;;;;;;;26.37;13.93;;;;;;;3.85;56.66;100776.69;7085754;27;20387;-79
2023/02/13 05:04:20;;;;;;;29.30;14.73;;;;;;;3.54;56.97;100781.75;7086424;27;20881;-81
2023/02/13 05:07:41;;;;;;;28.13;15.43;;;;;;;3.50;57.32;100777.59;7086251;27;20300;-79
2023/02/13 05:11:04;;;;;;;29.97;14.20;;;;;;;3.37;58.02;100785.63;7086462;27;20267;-78
2023/02/13 05:14:26;;;;;;;24.87;15.00;;;;;;;3.31;58.08;100777.25;7080064;27;20325;-78
2023/02/13 05:17:48;;;;;;;27.27;15.00;;;;;;;3.31;57.67;100791.41;7077142;28;20284;-78
2023/02/13 05:24:48;;;;;;;30.00;16.57;;;;;;;3.33;58.39;100781.50;7076902;28;20199;-78
2023/02/13 05:31:47;;;;;;;33.30;16.30;;;;;;;3.28;58.70;100791.63;7086892;27;20206;-78
2023/02/13 05:35:08;;;;;;;32.00;16.43;;;;;;;3.15;57.96;100780.16;7083685;27;20237;-78
2023/02/13 05:38:30;;;;;;;32.57;16.10;;;;;;;3.44;57.76;100792.25;7083111;27;20223;-78
2023/02/13 05:41:51;;;;;;;28.07;14.70;;;;;;;3.15;57.27;100793.50;7084914;27;20291;-78
2023/02/13 05:45:15;;;;;;;31.67;15.47;;;;;;;3.26;58.07;100790.03;7084539;27;20254;-81
2023/02/13 05:48:36;;;;;;;29.40;15.97;;;;;;;3.18;57.12;100745.28;7088867;27;20330;-79
2023/02/13 05:51:58;;;;;;;30.10;15.90;;;;;;;3.46;56.64;100766.31;7088799;27;20267;-79
2023/02/13 05:55:19;;;;;;;25.53;14.07;;;;;;;3.04;57.65;100785.41;7089253;27;20652;-78
2023/02/13 05:58:41;;;;;;;24.07;14.10;;;;;;;3.12;56.99;100769.72;7088190;27;20314;-78
2023/02/13 06:02:04;;;;;;;25.70;14.47;;;;;;;3.23;57.01;100788.44;7088583;27;20220;-79
2023/02/13 06:05:25;;;;;;;29.17;15.43;;;;;;;3.19;56.98;100783.47;7088251;27;20222;-79
2023/02/13 06:08:47;;;;;;;28.00;14.47;;;;;;;3.34;56.61;100785.88;7093547;27;20309;-78
2023/02/13 06:12:08;;;;;;;31.67;15.17;;;;;;;2.90;58.22;100774.03;7098808;27;20248;-78
2023/02/13 06:15:30;;;;;;;26.40;15.10;;;;;;;3.14;58.26;100790.94;7088982;27;20200;-78
2023/02/13 06:18:53;;;;;;;25.37;15.30;;;;;;;3.17;57.81;100793.34;7088884;27;20232;-79
2023/02/13 06:22:14;;;;;;;27.00;14.50;;;;;;;3.09;57.93;100793.94;7088764;27;20364;-79
2023/02/13 06:25:36;;;;;;;27.23;15.23;;;;;;;3.56;57.02;100779.81;7090034;27;20283;-79
2023/02/13 06:28:57;;;;;;;26.80;15.97;;;;;;;3.45;56.00;100793.06;7089790;27;20357;-79
2023/02/13 06:32:19;;;;;;;32.87;17.03;;;;;;;3.18;56.86;100782.59;7089732;27;20652;-78
2023/02/13 06:35:42;;;;;;;31.57;17.27;;;;;;;3.21;57.30;100785.06;7089162;27;20348;-78
2023/02/13 06:39:03;;;;;;;29.17;15.40;;;;;;;3.27;57.85;100791.75;7088891;27;20659;-79
2023/02/13 06:42:25;;;;;;;25.57;15.13;;;;;;;3.11;57.60;100799.13;7089970;27;20310;-78
2023/02/13 06:45:46;;;;;;;23.83;14.60;;;;;;;2.84;56.71;100746.00;7090146;27;20289;-78
2023/02/13 06:49:09;;;;;;;25.27;14.73;;;;;;;2.92;57.46;100791.63;7096755;27;20220;-78
2023/02/13 06:52:32;;;;;;;24.87;14.90;;;;;;;3.14;57.84;100796.25;7102043;27;20284;-79
2023/02/13 06:55:54;;;;;;;30.90;15.77;;;;;;;2.89;57.93;100783.00;7095853;27;20301;-79
2023/02/13 06:59:15;;;;;;;26.23;15.20;;;;;;;3.00;57.99;100802.56;7088788;27;20622;-80
2023/02/13 07:02:37;;;;;;;25.83;14.07;;;;;;;3.33;57.32;100797.50;7081957;27;20289;-79
2023/02/13 07:05:58;;;;;;;25.63;15.60;;;;;;;3.07;57.84;100793.16;7082017;27;20203;-79
2023/02/13 07:09:21;;;;;;;25.17;14.87;;;;;;;3.15;57.46;100800.63;7086320;27;20347;-79
2023/02/13 07:12:43;;;;;;;25.87;15.37;;;;;;;3.16;58.04;100807.66;7069777;27;20674;-79
2023/02/13 07:16:05;;;;;;;28.10;15.40;;;;;;;3.14;57.20;100797.09;7069848;27;20347;-79
2023/02/13 07:19:27;;;;;;;28.17;15.73;;;;;;;3.20;57.88;100809.16;7088412;27;20192;-79
2023/02/13 07:22:48;;;;;;;31.87;16.10;;;;;;;3.34;57.51;100804.53;7089021;27;20302;-79
2023/02/13 07:26:11;;;;;;;27.43;15.83;;;;;;;3.27;57.38;100783.75;7089559;27;20344;-79
2023/02/13 07:29:32;;;;;;;25.23;15.23;;;;;;;3.49;57.72;100807.91;7087827;27;20672;-79
2023/02/13 07:32:54;;;;;;;27.43;14.90;;;;;;;3.92;57.10;100814.41;7087202;27;20296;-79
2023/02/13 07:36:16;;;;;;;28.80;15.10;;;;;;;4.24;55.79;100783.50;7086450;27;20360;-80
2023/02/13 07:39:37;;;;;;;31.73;16.67;;;;;;;4.51;55.15;100773.34;7086257;27;20341;-79
2023/02/13 07:43:01;;;;;;;25.70;15.83;;;;;;;5.15;54.03;100792.22;7084411;27;20565;-80
2023/02/13 07:46:23;;;;;;;30.57;17.90;;;;;;;5.40;53.22;100799.09;7085822;27;20229;-79
2023/02/13 07:49:44;;;;;;;31.80;19.37;;;;;;;5.88;52.55;100776.34;7073506;27;20297;-79
2023/02/13 07:53:06;;;;;;;32.27;18.97;;;;;;;6.07;52.72;100822.91;7061698;27;20714;-79
2023/02/13 07:56:27;;;;;;;31.90;18.37;;;;;;;6.51;51.35;100805.75;7062531;27;20227;-79
2023/02/13 07:59:50;;;;;;;30.63;18.30;;;;;;;6.74;50.69;100780.50;7075232;27;20651;-79
2023/02/13 08:03:12;;;;;;;26.83;17.40;;;;;;;7.00;50.66;100804.06;7086707;27;20974;-79
2023/02/13 08:06:33;;;;;;;28.63;17.47;;;;;;;7.34;49.86;100794.75;7086191;27;20386;-79
2023/02/13 08:13:36;;;;;;;28.13;17.17;;;;;;;7.81;48.30;100788.66;7082747;27;20220;-79
2023/02/13 08:16:59;;;;;;;26.07;17.00;;;;;;;7.45;49.63;100794.66;7081624;27;20238;-79
2023/02/13 08:20:22;;;;;;;26.53;17.33;;;;;;;7.70;49.92;100806.69;7101948;27;20192;-79
2023/02/13 08:23:44;;;;;;;33.47;17.63;;;;;;;7.41;50.16;100803.09;7085184;27;20669;-79
2023/02/13 08:27:05;;;;;;;30.60;17.93;;;;;;;7.26;51.59;100805.31;7074173;27;20363;-79
2023/02/13 08:30:27;;;;;;;29.90;18.23;;;;;;;7.23;52.06;100812.78;7057339;28;20572;-79
2023/02/13 08:33:50;;;;;;;25.70;17.00;;;;;;;7.20;52.10;100799.66;7057613;28;20207;-80
2023/02/13 08:37:12;;;;;;;28.63;16.43;;;;;;;7.09;53.11;100794.38;7056219;28;20284;-79
2023/02/13 08:40:33;;;;;;;26.77;16.63;;;;;;;10.35;46.77;100787.03;7057088;28;20302;-80
2023/02/13 08:43:55;;;;;;;26.10;16.17;;;;;;;12.77;41.30;100775.09;7057641;28;20288;-79
2023/02/13 08:47:16;;;;;;;21.33;14.80;;;;;;;13.81;38.04;100769.31;7056535;28;20235;-79
2023/02/13 08:50:39;;;;;;;21.50;15.07;;;;;;;14.38;37.11;100758.94;7057593;28;20208;-79
2023/02/13 08:54:01;;;;;;;22.47;14.07;;;;;;;15.29;35.64;100753.06;7057435;28;20669;-79
2023/02/13 08:57:22;;;;;;;20.10;14.40;;;;;;;15.40;36.88;100765.41;7064217;28;20313;-79
2023/02/13 09:00:44;;;;;;;17.13;13.00;;;;;;;16.59;33.63;100751.06;7085915;27;20207;-80
2023/02/13 09:04:05;;;;;;;14.23;10.77;;;;;;;17.50;32.06;100746.25;7085241;27;20717;-81
2023/02/13 09:07:28;;;;;;;15.77;11.67;;;;;;;16.67;34.56;100748.19;7068470;27;20708;-79
2023/02/13 09:10:56;;;;;;;14.97;10.97;;;;;;;17.21;33.08;100750.06;7057462;28;20295;-80
2023/02/13 09:14:17;;;;;;;12.33;9.93;;;;;;;16.89;33.96;100755.28;7057316;28;20187;-79
2023/02/13 09:17:39;;;;;;;11.70;9.77;;;;;;;16.77;33.88;100740.53;7077891;27;20726;-79
2023/02/13 09:21:01;;;;;;;12.40;9.10;;;;;;;16.24;34.80;100746.53;7085583;27;20271;-79
2023/02/13 09:24:24;;;;;;;11.50;9.53;;;;;;;15.07;37.68;100766.75;7090288;27;20227;-79
2023/02/13 09:27:46;;;;;;;12.60;9.53;;;;;;;13.91;39.90;100764.50;7089236;27;20328;-80
2023/02/13 09:31:08;;;;;;;14.10;9.57;;;;;;;13.17;41.05;100761.47;7090587;27;20336;-79
2023/02/13 09:34:30;;;;;;;11.40;9.53;;;;;;;13.10;42.55;100770.47;7092263;27;20854;-79
2023/02/13 09:37:51;;;;;;;10.67;9.10;;;;;;;12.82;42.80;100755.63;7082152;27;20224;-79
2023/02/13 09:41:16;;;;;;;12.43;9.53;;;;;;;12.50;43.18;100764.63;7064233;28;20358;-79
2023/02/13 09:44:42;;;;;;;12.13;9.60;;;;;;;12.39;43.82;100756.84;7061887;28;20284;-80
2023/02/13 09:48:04;;;;;;;10.30;8.60;;;;;;;12.11;44.30;100766.28;7087263;27;20221;-80
2023/02/13 09:51:27;;;;;;;11.57;9.00;;;;;;;12.57;44.04;100781.03;7089416;27;20290;-79
2023/02/13 09:54:48;;;;;;;11.70;9.23;;;;;;;12.79;42.92;100773.03;7090021;27;20724;-80
2023/02/13 09:58:18;;;;;;;13.13;10.03;;;;;;;12.85;43.17;100750.69;7066636;27;20217;-80
2023/02/13 10:01:41;;;;;;;12.87;9.53;;;;;;;13.38;42.36;100769.00;7074469;27;20210;-80
2023/02/13 10:05:10;;;;;;;11.93;10.07;;;;;;;13.73;41.40;100760.38;7088711;27;20274;-80
2023/02/13 10:08:41;;;;;;;12.90;10.20;;;;;;;13.76;41.03;100763.56;7088372;27;20655;-80
2023/02/13 10:12:14;;;;;;;11.70;10.00;;;;;;;13.57;42.10;100774.84;7088012;27;20188;-80
2023/02/13 10:15:41;;;;;;;12.00;9.83;;;;;;;14.09;41.01;100750.69;7081050;27;20195;-80
2023/02/13 10:19:06;;;;;;;12.17;9.53;;;;;;;14.00;40.87;100744.47;7086968;27;20707;-79
2023/02/13 10:22:30;;;;;;;12.57;9.67;;;;;;;13.09;41.97;100730.88;7087114;27;20229;-80
2023/02/13 10:25:54;;;;;;;11.30;9.03;;;;;;;14.15;41.54;100760.81;7089848;27;20334;-80
2023/02/13 10:33:20;;;;;;;11.87;9.77;;;;;;;13.75;41.57;100761.88;7076658;27;20199;-80
2023/02/13 10:36:44;;;;;;;11.13;9.13;;;;;;;13.90;41.83;100753.84;7071033;27;20225;-79
2023/02/13 10:40:10;;;;;;;12.90;10.00;;;;;;;13.68;40.95;100733.81;7090078;27;20257;-81
2023/02/13 10:43:39;;;;;;;14.97;10.27;;;;;;;13.83;41.04;100744.72;7091270;27;20247;-81
2023/02/13 10:47:06;;;;;;;11.57;9.80;;;;;;;14.33;40.95;100743.22;7090173;27;20219;-81
2023/02/13 10:50:34;;;;;;;13.33;10.70;;;;;;;14.88;40.06;100749.16;7075414;27;20349;-81
2023/02/13 10:54:10;;;;;;;10.73;9.30;;;;;;;15.02;38.47;100718.44;7090045;27;20331;-79
2023/02/13 10:57:41;;;;;;;13.60;9.97;;;;;;;13.35;42.26;100721.47;7082764;27;20302;-80
2023/02/13 11:01:07;;;;;;;10.87;8.70;;;;;;;14.56;40.78;100724.16;7089377;27;20237;-82
2023/02/13 11:04:29;;;;;;;13.53;10.63;;;;;;;14.37;40.93;100717.41;7089154;27;20209;-80
2023/02/13 11:07:52;;;;;;;12.87;9.87;;;;;;;15.21;39.39;100709.69;7088558;27;20310;-80
2023/02/13 11:11:30;;;;;;;10.07;8.70;;;;;;;15.62;37.98;100710.88;7089346;27;20349;-80
2023/02/13 11:14:56;;;;;;;11.80;9.07;;;;;;;15.92;37.85;100701.59;7082241;27;20201;-81
2023/02/13 11:18:19;;;;;;;9.63;8.63;;;;;;;15.80;38.42;100705.88;7088300;27;20593;-80
2023/02/13 11:21:41;;;;;;;10.97;8.93;;;;;;;15.95;37.86;100695.78;7088780;27;20640;-80
2023/02/13 11:25:07;;;;;;;10.23;8.93;;;;;;;15.03;39.48;100705.66;7089498;27;20271;-82
2023/02/13 11:28:29;;;;;;;12.50;8.97;;;;;;;15.28;38.37;100667.13;7085540;27;20293;-80
2023/02/13 11:32:17;;;;;;;9.07;7.60;;;;;;;15.61;37.52;100687.44;7085648;27;20270;-80
2023/02/13 11:35:39;;;;;;;9.43;7.63;;;;;;;16.08;37.29;100704.06;7088283;27;20274;-81
2023/02/13 11:39:03;;;;;;;7.50;6.80;;;;;;;16.20;36.76;100664.41;7087809;27;20269;-80
2023/02/13 11:42:29;;;;;;;10.13;7.87;;;;;;;16.73;35.97;100690.19;7088429;27;20204;-81
2023/02/13 11:46:01;;;;;;;8.27;7.43;;;;;;;16.89;35.20;100679.00;7086405;27;20650;-81
2023/02/13 11:49:24;;;;;;;8.17;7.27;;;;;;;16.45;35.87;100689.38;7087853;27;20196;-81
2023/02/13 11:52:53;;;;;;;7.47;6.70;;;;;;;16.94;35.36;100687.41;7087982;27;20285;-80
2023/02/13 11:56:16;;;;;;;7.37;6.57;;;;;;;16.39;36.28;100666.47;7087541;27;20269;-80
2023/02/13 11:59:44;;;;;;;7.73;6.93;;;;;;;15.35;36.87;100699.88;7067222;27;20373;-80
2023/02/13 12:03:27;;;;;;;6.73;6.03;;;;;;;16.47;36.12;100676.41;7059696;28;20255;-80
2023/02/13 12:07:00;;;;;;;6.20;5.60;;;;;;;16.78;34.94;100691.31;7059523;28;20366;-80
2023/02/13 12:10:24;;;;;;;9.27;7.33;;;;;;;16.17;36.15;100680.28;7059259;28;20292;-78
2023/02/13 12:13:46;;;;;;;6.60;6.00;;;;;;;16.35;36.27;100676.03;7059709;28;20221;-80
2023/02/13 12:17:13;;;;;;;7.77;6.97;;;;;;;16.17;35.86;100683.84;7080606;27;20309;-80
2023/02/13 12:20:43;;;;;;;7.57;6.87;;;;;;;16.26;36.47;100681.81;7088633;27;20311;-79
2023/02/13 12:24:15;;;;;;;6.80;6.10;;;;;;;16.68;35.63;100666.28;7062559;27;20271;-79
2023/02/13 12:27:41;;;;;;;9.73;5.97;;;;;;;16.50;35.62;100648.75;7071467;27;20230;-79
2023/02/13 12:31:31;;;;;;;7.07;6.17;;;;;;;17.08;34.83;100668.22;7082548;27;20221;-79
2023/02/13 12:35:14;;;;;;;7.77;6.50;;;;;;;17.15;34.58;100679.16;7089828;27;20204;-78
2023/02/13 12:38:46;;;;;;;6.37;5.77;;;;;;;16.61;35.12;100664.53;7094358;27;20276;-79
2023/02/13 12:42:21;;;;;;;7.03;6.33;;;;;;;16.82;34.85;100675.41;7090836;27;20203;-79
2023/02/13 12:45:46;;;;;;;7.97;6.17;;;;;;;15.33;37.35;100678.31;7087397;27;20259;-79
2023/02/13 12:49:25;;;;;;;6.87;6.17;;;;;;;13.70;41.00;100677.53;7086227;27;20226;-79
2023/02/13 12:52:56;;;;;;;8.00;6.30;;;;;;;14.61;39.64;100681.03;7087303;27;20340;-80
2023/02/13 12:56:37;;;;;;;7.47;6.23;;;;;;;14.74;39.28;100662.25;7088954;27;20364;-79
2023/02/13 13:00:26;;;;;;;7.00;6.30;;;;;;;15.42;38.28;100658.16;7093660;27;20598;-79
2023/02/13 13:03:57;;;;;;;6.40;5.67;;;;;;;16.12;36.52;100637.34;7068020;27;20436;-79
2023/02/13 13:07:42;;;;;;;6.83;5.70;;;;;;;16.51;35.09;100654.00;7080469;27;20236;-80
2023/02/13 13:11:14;;;;;;;7.40;6.23;;;;;;;15.52;37.86;100628.78;7073312;27;20247;-79
2023/02/13 13:14:40;;;;;;;7.47;6.77;;;;;;;14.18;41.00;100658.19;7083734;27;20194;-79
2023/02/13 13:18:11;;;;;;;7.50;6.63;;;;;;;14.27;40.91;100640.81;7089918;27;20765;-79
2023/02/13 13:21:39;;;;;;;7.47;6.67;;;;;;;13.53;42.71;100659.72;7091228;27;20278;-79
2023/02/13 13:25:07;;;;;;;7.60;6.33;;;;;;;13.41;43.32;100649.44;7090960;27;20238;-79
2023/02/13 13:28:34;;;;;;;7.67;6.73;;;;;;;13.79;42.74;100643.94;7090363;27;20242;-79
2023/02/13 13:31:59;;;;;;;7.27;6.47;;;;;;;13.32;43.22;100631.53;7090650;27;20760;-79
2023/02/13 13:35:21;;;;;;;8.70;6.53;;;;;;;13.48;43.05;100635.00;7073545;27;20345;-79
2023/02/13 13:38:51;;;;;;;7.07;6.30;;;;;;;13.47;42.97;100652.28;7062188;28;20371;-79
2023/02/13 13:42:17;;;;;;;6.83;5.97;;;;;;;14.09;42.17;100639.47;7070442;27;20206;-79
2023/02/13 13:45:45;;;;;;;7.57;6.73;;;;;;;13.45;43.12;100653.50;7089871;27;20273;-79
2023/02/13 13:49:17;;;;;;;7.60;6.90;;;;;;;13.37;43.41;100627.28;7090136;27;20232;-79
2023/02/13 13:52:39;;;;;;;6.53;5.83;;;;;;;15.13;40.62;100641.03;7078635;27;20247;-80
2023/02/13 13:56:03;;;;;;;6.47;5.70;;;;;;;14.89;39.43;100576.16;7075895;27;20289;-80
2023/02/13 13:59:58;;;;;;;6.30;5.70;;;;;;;16.14;37.40;100626.25;7073755;27;20198;-80
2023/02/13 14:03:35;;;;;;;7.00;5.30;;;;;;;16.58;36.42;100626.84;7081955;27;20256;-79
2023/02/13 14:07:22;;;;;;;6.33;5.57;;;;;;;16.56;36.76;100631.63;7069807;27;20215;-79
2023/02/13 14:11:07;;;;;;;6.40;5.73;;;;;;;15.42;37.82;100628.25;7060680;27;20306;-79
2023/02/13 14:14:51;;;;;;;7.83;6.00;;;;;;;16.08;37.43;100622.44;7080158;27;20192;-79
2023/02/13 14:18:20;;;;;;;6.33;5.70;;;;;;;15.60;38.05;100606.91;7083518;27;20231;-79
2023/02/13 14:21:42;;;;;;;6.50;5.80;;;;;;;15.43;38.37;100612.78;7091330;27;20220;-79
2023/02/13 14:25:06;;;;;;;6.63;5.43;;;;;;;15.86;38.20;100617.22;7084690;27;20221;-79
2023/02/13 14:28:29;;;;;;;7.27;5.53;;;;;;;15.89;38.02;100622.25;7079325;27;20316;-79
2023/02/13 14:32:22;;;;;;;6.83;5.97;;;;;;;15.50;38.12;100624.56;7088344;27;20247;-79
2023/02/13 14:35:44;;;;;;;7.47;6.33;;;;;;;15.45;39.01;100635.19;7011736;27;20297;-79
2023/02/13 14:39:08;;;;;;;8.03;6.20;;;;;;;15.39;39.16;100634.06;7090919;27;20326;-80
2023/02/13 14:42:30;;;;;;;6.67;5.67;;;;;;;15.36;38.97;100641.75;7077163;27;20265;-80
2023/02/13 14:45:54;;;;;;;6.70;6.00;;;;;;;15.44;38.91;100639.78;7066706;27;20275;-80
2023/02/13 14:49:19;;;;;;;7.93;6.47;;;;;;;14.07;42.00;100634.22;7102350;27;20290;-78
2023/02/13 14:52:43;;;;;;;9.80;6.60;;;;;;;15.00;40.69;100633.56;7094603;27;20346;-78
2023/02/13 14:56:11;;;;;;;8.83;6.87;;;;;;;15.37;39.83;100640.72;7093038;27;20357;-80
2023/02/13 14:59:36;;;;;;;6.87;6.10;;;;;;;15.24;39.89;100644.13;7091525;27;20325;-78
2023/02/13 15:03:01;;;;;;;6.87;6.17;;;;;;;15.09;39.89;100639.72;7089394;27;20217;-81
2023/02/13 15:06:27;;;;;;;7.07;6.37;;;;;;;14.93;40.20;100605.44;7087401;27;20319;-79
2023/02/13 15:09:51;;;;;;;7.43;6.63;;;;;;;15.11;40.37;100621.38;7089295;27;20184;-79
2023/02/13 15:13:17;;;;;;;10.47;6.83;;;;;;;15.12;40.12;100626.63;7089386;27;20281;-80
2023/02/13 15:16:38;;;;;;;7.80;6.57;;;;;;;14.97;40.48;100614.06;7087744;27;20228;-79
2023/02/13 15:20:04;;;;;;;7.20;6.50;;;;;;;14.62;41.01;100623.00;7087292;27;20276;-79
2023/02/13 15:23:28;;;;;;;7.07;6.37;;;;;;;14.43;41.36;100612.66;7088344;27;20189;-79
2023/02/13 15:26:51;;;;;;;7.07;6.30;;;;;;;13.94;41.75;100587.03;7087157;27;20353;-79
2023/02/13 15:30:22;;;;;;;8.40;7.00;;;;;;;13.16;44.07;100627.06;7087959;27;20688;-79
2023/02/13 15:33:45;;;;;;;8.07;6.57;;;;;;;13.29;43.98;100624.59;7087237;27;20221;-79
2023/02/13 15:37:20;;;;;;;8.27;7.13;;;;;;;13.61;43.06;100619.00;7087914;27;20289;-79
2023/02/13 15:40:42;;;;;;;9.17;7.33;;;;;;;13.80;42.62;100623.91;7078576;27;20200;-79
2023/02/13 15:44:04;;;;;;;10.07;7.83;;;;;;;13.36;43.24;100625.59;7064690;27;20213;-79
2023/02/13 15:47:30;;;;;;;8.10;7.10;;;;;;;13.06;43.99;100623.75;7080344;27;20306;-79
2023/02/13 15:50:52;;;;;;;9.93;7.53;;;;;;;12.85;44.50;100623.47;7072004;27;20204;-79
2023/02/13 15:54:24;;;;;;;10.00;7.87;;;;;;;12.92;44.58;100621.72;7058199;28;20198;-79
2023/02/13 15:57:46;;;;;;;10.27;8.43;;;;;;;12.78;44.75;100622.47;7057436;28;20633;-79
2023/02/13 16:01:09;;;;;;;10.50;8.83;;;;;;;12.41;45.49;100629.53;7058093;28;20245;-78
2023/02/13 16:04:32;;;;;;;13.17;9.23;;;;;;;12.14;45.76;100622.63;7057734;28;20240;-80
2023/02/13 16:07:56;;;;;;;11.97;8.50;;;;;;;11.78;46.77;100647.47;7056606;28;20224;-79
2023/02/13 16:11:32;;;;;;;12.30;8.97;;;;;;;11.78;46.65;100637.53;7057836;28;20657;-79
2023/02/13 16:14:56;;;;;;;11.80;9.03;;;;;;;11.52;47.08;100639.47;7057280;28;20553;-79
2023/02/13 16:18:19;;;;;;;10.10;8.50;;;;;;;11.29;46.94;100603.34;7079802;27;20223;-78
2023/02/13 16:21:42;;;;;;;11.43;8.77;;;;;;;11.56;46.61;100616.53;7085686;27;20368;-78
2023/02/13 16:25:17;;;;;;;12.67;9.40;;;;;;;11.56;46.52;100629.22;7085768;27;20364;-79
2023/02/13 16:28:39;;;;;;;13.17;9.33;;;;;;;11.37;46.88;100640.31;7085750;27;20783;-77
2023/02/13 16:32:09;;;;;;;12.40;9.43;;;;;;;11.47;46.60;100646.41;7084609;27;20236;-80
2023/02/13 16:35:32;;;;;;;11.43;8.50;;;;;;;11.35;46.71;100648.59;7086499;27;20369;-79
2023/02/13 16:38:55;;;;;;;10.67;8.93;;;;;;;11.33;46.68;100649.75;7086165;27;20312;-79